»·PEaware :: N208SG KLAX-KSNA

N208SG :: KLAX-KSNA

FLIGHT INFORMATION

Flight Status: Arrived
Operator: Privately registered:
United States
More flights under this callsign
Pilot: Andrew G. (414)
Aircraft: CESSNA 208 CARAVAN
(C208)
More flights by this aircraft type
Origin: KLAX Los Angeles Intl
United States
Destination: KSNA John Wayne-Orange Co
United States
More flights between these airports :: More routes between these airports
Route: SLI8 SLI
File this flight plan on PilotEdge
Remarks:
Altitude:
(Current/Filed)
4,000ft
Speed:
(Current/Filed)
148kts
Departed: 15-Sep-21 04:24 PM
Arrived: 15-Sep-21 05:01 PM
Distance/Time
Traveled:
31nm/0:37
Distance/Time
To Go:
Arrived

Flight Plot

Page will automatically refresh every two minutes.

Flight plan parsing failed; only flown route is shown


Map Options




Map Legend


Flown Route
Filed Route
Departure Airport
Arrival Airport
Navaid (VOR, NDB)
Fix

Horizontal Profiles

Position Reports

Time Latitude Longitude Heading Altitude Ground
Speed
15-Sep-21 16:03 33.933798 -118.399136 22 124ft 0kts
15-Sep-21 16:04 33.933798 -118.399136 22 124ft 0kts
15-Sep-21 16:05 33.933798 -118.399136 22 124ft 0kts
15-Sep-21 16:06 33.933798 -118.399136 22 124ft 0kts
15-Sep-21 16:07 33.933798 -118.399136 22 124ft 0kts
15-Sep-21 16:08 33.933798 -118.399136 22 124ft 0kts
15-Sep-21 16:09 33.933798 -118.399136 22 124ft 0kts
15-Sep-21 16:10 33.933798 -118.399136 22 124ft 0kts
15-Sep-21 16:11 33.933798 -118.399136 22 124ft 0kts
15-Sep-21 16:12 33.933798 -118.399136 22 124ft 0kts
15-Sep-21 16:13 33.933798 -118.399136 22 124ft 0kts
15-Sep-21 16:14 33.933798 -118.399136 22 124ft 0kts
15-Sep-21 16:15 33.933798 -118.399136 22 124ft 0kts
15-Sep-21 16:16 33.933798 -118.399136 22 124ft 0kts
15-Sep-21 16:17 33.933798 -118.399136 22 124ft 0kts
15-Sep-21 16:18 33.934570 -118.397933 84 124ft 12kts
15-Sep-21 16:19 33.935170 -118.392219 82 124ft 19kts
15-Sep-21 16:20 33.935795 -118.385847 83 124ft 17kts
15-Sep-21 16:21 33.936403 -118.382792 16 124ft 0kts
15-Sep-21 16:22 33.937048 -118.382847 352 124ft 13kts
15-Sep-21 16:23 33.935508 -118.401170 264 313ft 101kts
15-Sep-21 16:24 33.934178 -118.437966 264 1119ft 124kts
15-Sep-21 16:25 33.908388 -118.462281 218 2097ft 122kts
15-Sep-21 16:26 33.880427 -118.484742 213 3110ft 121kts
15-Sep-21 16:27 33.852321 -118.508199 213 4016ft 131kts
15-Sep-21 16:28 33.817785 -118.536514 213 4053ft 158kts
15-Sep-21 16:29 33.776383 -118.533235 163 4054ft 157kts
15-Sep-21 16:30 33.734757 -118.517279 162 4051ft 157kts
15-Sep-21 16:31 33.693181 -118.501154 162 4051ft 157kts
15-Sep-21 16:32 33.667051 -118.462873 113 4061ft 159kts
15-Sep-21 16:33 33.650725 -118.413676 112 4063ft 159kts
15-Sep-21 16:34 33.634695 -118.364055 112 4062ft 160kts
15-Sep-21 16:35 33.650674 -118.317447 59 4067ft 162kts
15-Sep-21 16:36 33.674305 -118.270970 59 4070ft 162kts
15-Sep-21 16:37 33.697949 -118.224511 59 4070ft 163kts
15-Sep-21 16:38 33.721380 -118.178078 59 4070ft 163kts
15-Sep-21 16:39 33.744685 -118.131357 59 4070ft 163kts
15-Sep-21 16:40 33.768368 -118.084819 59 4072ft 163kts
15-Sep-21 16:41 33.790377 -118.037227 67 4073ft 162kts
15-Sep-21 16:42 33.810074 -117.988258 67 4075ft 163kts
15-Sep-21 16:43 33.829753 -117.939298 67 4077ft 163kts
15-Sep-21 16:44 33.849555 -117.889970 67 4080ft 163kts
15-Sep-21 16:45 33.869320 -117.840624 67 4085ft 163kts
15-Sep-21 16:46 33.889101 -117.791212 67 4083ft 164kts
15-Sep-21 16:47 33.909053 -117.741197 67 4082ft 167kts
15-Sep-21 16:48 33.935488 -117.698457 23 4064ft 163kts
15-Sep-21 16:49 33.975936 -117.675633 349 3592ft 158kts
15-Sep-21 16:50 33.990793 -117.712333 236 3542ft 136kts
15-Sep-21 16:51 33.956554 -117.718427 167 3527ft 139kts
15-Sep-21 16:52 33.919489 -117.713470 211 3518ft 137kts
15-Sep-21 16:53 33.885603 -117.735575 211 3473ft 143kts
15-Sep-21 16:54 33.850122 -117.758356 207 3241ft 145kts
15-Sep-21 16:55 33.814570 -117.780850 207 2960ft 151kts
15-Sep-21 16:56 33.777817 -117.804123 207 2162ft 142kts
15-Sep-21 16:57 33.743427 -117.825904 209 1421ft 138kts
15-Sep-21 16:58 33.712498 -117.845659 209 759ft 107kts
15-Sep-21 16:59 33.686761 -117.861899 208 171ft 85kts
15-Sep-21 17:00 33.673535 -117.870217 207 58ft 28kts
15-Sep-21 17:01 33.669004 -117.871384 138 62ft 2kts
15-Sep-21 17:02 33.666422 -117.873375 200 66ft 14kts
15-Sep-21 17:03 33.665128 -117.873860 207 64ft 0kts
15-Sep-21 17:04 33.665128 -117.873860 207 64ft 0kts
15-Sep-21 17:05 33.665128 -117.873860 207 64ft 0kts
15-Sep-21 17:06 33.665128 -117.873860 207 64ft 0kts
15-Sep-21 17:07 33.665128 -117.873860 207 64ft 0kts
15-Sep-21 17:08 33.665128 -117.873860 207 64ft 0kts
15-Sep-21 17:09 33.665128 -117.873860 207 64ft 0kts
15-Sep-21 17:10 33.665128 -117.873860 207 64ft 0kts
15-Sep-21 17:11 33.665128 -117.873860 207 64ft 0kts
15-Sep-21 17:12 33.665128 -117.873860 207 64ft 0kts
15-Sep-21 17:13 33.665128 -117.873860 207 64ft 0kts
15-Sep-21 17:14 33.665128 -117.873860 207 64ft 0kts

Navigation Log

Ident Type
Flight plan parsing failed, navigation log unavailable